Time;durP1;ratioP1;P1;durP2;ratioP2;P2;SDS_P1;SDS_P2;PMS_P1;PMS_P2;Temp;Humidity;BMP_temperature;BMP_pressure;BME280_temperature;BME280_humidity;BME280_pressure;Samples;Min_cycle;Max_cycle;Signal;HPM_P1;HPM_P2
2023/09/15 00:02:10;;;;;;;6.50;2.20;;;14.30;99.90;;;;;;4981505;28;20324;-69
2023/09/15 00:04:56;;;;;;;8.25;1.80;;;14.20;99.90;;;;;;4965324;28;20280;-70
2023/09/15 00:07:43;;;;;;;3.83;1.70;;;14.20;99.90;;;;;;4984390;28;20054;-70
2023/09/15 00:10:29;;;;;;;7.27;1.73;;;14.10;99.90;;;;;;4971901;28;20050;-70
2023/09/15 00:13:15;;;;;;;7.05;2.05;;;14.10;99.90;;;;;;4958448;28;20077;-70
2023/09/15 00:16:01;;;;;;;3.72;1.40;;;14.10;99.90;;;;;;4987279;28;20033;-70
2023/09/15 00:18:47;;;;;;;5.90;1.60;;;14.00;99.90;;;;;;5005209;28;20065;-70
2023/09/15 00:21:33;;;;;;;4.28;1.40;;;14.00;99.90;;;;;;4987220;28;20061;-70
2023/09/15 00:24:21;;;;;;;4.82;1.80;;;14.00;99.90;;;;;;4987305;28;20056;-70
2023/09/15 00:27:07;;;;;;;5.90;1.70;;;14.00;99.90;;;;;;4995531;28;20043;-70
2023/09/15 00:29:53;;;;;;;5.45;1.95;;;14.00;99.90;;;;;;5011500;28;20056;-70
2023/09/15 00:32:39;;;;;;;5.13;1.70;;;14.00;99.90;;;;;;5001023;28;20598;-70
2023/09/15 00:35:30;;;;;;;5.68;2.00;;;14.00;99.90;;;;;;4999273;28;20080;-70
2023/09/15 00:38:16;;;;;;;6.95;1.58;;;14.00;99.90;;;;;;4996963;28;20750;-70
2023/09/15 00:41:02;;;;;;;5.28;1.52;;;13.90;99.90;;;;;;4998842;28;20046;-70
2023/09/15 00:43:48;;;;;;;3.92;1.50;;;13.80;99.90;;;;;;5009341;28;20045;-70
2023/09/15 00:46:34;;;;;;;5.50;2.63;;;13.90;99.90;;;;;;5010735;28;20045;-70
2023/09/15 00:49:20;;;;;;;8.23;1.95;;;13.80;99.90;;;;;;4998800;28;20042;-70
2023/09/15 00:52:06;;;;;;;3.60;1.40;;;13.70;99.90;;;;;;4982829;28;20097;-70
2023/09/15 00:54:52;;;;;;;6.10;1.70;;;13.70;99.90;;;;;;4986011;28;20037;-70
2023/09/15 00:57:38;;;;;;;6.18;1.80;;;13.70;99.90;;;;;;4974739;28;20033;-70
2023/09/15 01:00:24;;;;;;;4.82;1.70;;;13.70;99.90;;;;;;4979759;28;20458;-70
2023/09/15 01:03:11;;;;;;;4.35;1.60;;;13.60;99.90;;;;;;4991920;28;20038;-70
2023/09/15 01:05:57;;;;;;;5.47;1.70;;;13.50;99.90;;;;;;4997824;28;20072;-70
2023/09/15 01:08:43;;;;;;;3.90;1.60;;;13.60;99.90;;;;;;4983607;28;20049;-70
2023/09/15 01:11:29;;;;;;;6.70;1.60;;;13.50;99.90;;;;;;5013601;28;20053;-70
2023/09/15 01:14:15;;;;;;;6.80;2.20;;;13.50;99.90;;;;;;5012714;28;20046;-70
2023/09/15 01:17:08;;;;;;;4.35;2.00;;;13.50;99.90;;;;;;5002730;28;20102;-70
2023/09/15 01:20:06;;;;;;;8.95;2.08;;;13.50;99.90;;;;;;5001124;28;20045;-70
2023/09/15 01:23:15;;;;;;;5.07;2.03;;;13.50;99.90;;;;;;5016570;28;20042;-70
2023/09/15 01:26:23;;;;;;;6.00;1.80;;;13.50;99.90;;;;;;5009549;28;20051;-70
2023/09/15 01:29:18;;;;;;;4.18;1.77;;;13.40;99.90;;;;;;5032222;28;20471;-70
2023/09/15 01:32:09;;;;;;;5.78;2.30;;;13.40;99.90;;;;;;5032171;28;20124;-70
2023/09/15 01:34:55;;;;;;;4.50;1.52;;;13.30;99.90;;;;;;5002209;28;20064;-70
2023/09/15 01:37:41;;;;;;;4.03;2.00;;;13.40;99.90;;;;;;4994016;28;20049;-70
2023/09/15 01:40:27;;;;;;;6.68;1.67;;;13.30;99.90;;;;;;5000701;28;20497;-70
2023/09/15 01:43:13;;;;;;;6.63;1.95;;;13.30;99.90;;;;;;4999435;28;20083;-69
2023/09/15 01:45:59;;;;;;;5.07;2.00;;;13.30;99.90;;;;;;5006923;28;20041;-70
2023/09/15 01:48:47;;;;;;;6.53;1.95;;;13.20;99.90;;;;;;5023544;28;20095;-70
2023/09/15 01:51:33;;;;;;;8.25;2.00;;;13.20;99.90;;;;;;5027173;28;20132;-70
2023/09/15 01:54:19;;;;;;;5.75;1.92;;;13.20;99.90;;;;;;5016506;28;20083;-70
2023/09/15 01:57:05;;;;;;;8.13;1.80;;;13.10;99.90;;;;;;5044778;28;20041;-70
2023/09/15 01:59:51;;;;;;;4.38;1.70;;;13.10;99.90;;;;;;5011358;28;20037;-70
2023/09/15 02:02:38;;;;;;;5.72;1.73;;;13.10;99.90;;;;;;5027866;28;20048;-70
2023/09/15 02:05:24;;;;;;;4.68;1.63;;;13.00;99.90;;;;;;5036966;28;20049;-70
2023/09/15 02:08:10;;;;;;;7.00;1.80;;;13.00;99.90;;;;;;5037543;28;20033;-70
2023/09/15 02:10:56;;;;;;;3.97;1.58;;;13.00;99.90;;;;;;5017618;28;20037;-70
2023/09/15 02:13:42;;;;;;;4.32;1.50;;;12.90;99.90;;;;;;5032161;28;20040;-70
2023/09/15 02:16:28;;;;;;;4.10;1.60;;;12.90;99.90;;;;;;5031972;28;20051;-70
2023/09/15 02:19:14;;;;;;;4.40;1.70;;;13.00;99.90;;;;;;5033290;28;20307;-70
2023/09/15 02:22:00;;;;;;;3.40;1.70;;;12.90;99.90;;;;;;5041406;28;20481;-70
2023/09/15 02:24:46;;;;;;;6.03;1.83;;;12.90;99.90;;;;;;5029505;28;20423;-70
2023/09/15 02:27:32;;;;;;;5.15;1.55;;;12.90;99.90;;;;;;5022839;28;20039;-70
2023/09/15 02:30:18;;;;;;;4.10;1.88;;;12.90;99.90;;;;;;5016217;28;20057;-70
2023/09/15 02:33:04;;;;;;;4.40;1.70;;;12.80;99.90;;;;;;5004598;28;20073;-70
2023/09/15 02:35:50;;;;;;;5.68;1.90;;;12.70;99.90;;;;;;5019490;28;20577;-70
2023/09/15 02:38:36;;;;;;;4.20;1.98;;;12.70;99.90;;;;;;5004390;28;20735;-70
2023/09/15 02:41:22;;;;;;;4.65;1.70;;;12.70;99.90;;;;;;4982864;28;20050;-70
2023/09/15 02:44:09;;;;;;;3.65;1.65;;;12.70;99.90;;;;;;5002538;28;20041;-70
2023/09/15 02:46:55;;;;;;;5.20;2.13;;;12.70;99.90;;;;;;5049169;28;20125;-70
2023/09/15 02:49:41;;;;;;;3.40;1.95;;;12.70;99.90;;;;;;5037097;28;20080;-70
2023/09/15 02:52:27;;;;;;;6.25;2.10;;;12.60;99.90;;;;;;5000325;28;20045;-70
2023/09/15 02:55:13;;;;;;;5.40;2.05;;;12.60;99.90;;;;;;5046552;28;20048;-70
2023/09/15 02:57:59;;;;;;;5.57;1.90;;;12.60;99.90;;;;;;5036012;28;20489;-70
2023/09/15 03:00:45;;;;;;;2.80;1.63;;;12.60;99.90;;;;;;5013499;28;20469;-70
2023/09/15 03:03:32;;;;;;;6.72;2.10;;;12.60;99.90;;;;;;4997552;28;20080;-70
2023/09/15 03:06:19;;;;;;;6.05;2.00;;;12.60;99.90;;;;;;5020286;28;20041;-70
2023/09/15 03:09:06;;;;;;;7.20;2.43;;;12.60;99.90;;;;;;5022836;28;20381;-70
2023/09/15 03:11:52;;;;;;;2.95;1.67;;;12.50;99.90;;;;;;5013161;28;20429;-70
2023/09/15 03:14:39;;;;;;;5.22;1.85;;;12.50;99.90;;;;;;5016410;28;20182;-70
2023/09/15 03:17:25;;;;;;;6.38;1.88;;;12.60;99.90;;;;;;5012393;28;20081;-70
2023/09/15 03:20:16;;;;;;;6.30;1.52;;;12.60;99.90;;;;;;5008484;28;20042;-70
2023/09/15 03:23:02;;;;;;;5.78;2.05;;;12.60;99.90;;;;;;5014833;28;20042;-70
2023/09/15 03:25:48;;;;;;;5.15;1.92;;;12.60;99.90;;;;;;5030023;28;20041;-69
2023/09/15 03:28:35;;;;;;;3.45;1.48;;;12.60;99.90;;;;;;4997750;28;20108;-70
2023/09/15 03:31:21;;;;;;;5.18;2.00;;;12.60;99.90;;;;;;5013310;28;20037;-70
2023/09/15 03:34:06;;;;;;;3.33;1.73;;;12.60;99.90;;;;;;5005976;28;20037;-70
2023/09/15 03:36:54;;;;;;;7.30;2.10;;;12.60;99.90;;;;;;5032560;28;20057;-70
2023/09/15 03:39:39;;;;;;;6.18;2.08;;;12.60;99.90;;;;;;5029942;28;20044;-70
2023/09/15 03:42:25;;;;;;;5.93;1.92;;;12.50;99.90;;;;;;5037180;28;20646;-70
2023/09/15 03:45:11;;;;;;;5.80;1.80;;;12.40;99.90;;;;;;5041875;28;20041;-70
2023/09/15 03:47:57;;;;;;;3.80;1.60;;;12.30;99.90;;;;;;4996252;28;20045;-70
2023/09/15 03:50:44;;;;;;;3.60;1.80;;;12.30;99.90;;;;;;4989678;28;20776;-70
2023/09/15 03:53:29;;;;;;;4.03;1.75;;;12.30;99.90;;;;;;4986100;28;20099;-70
2023/09/15 03:56:15;;;;;;;5.25;1.90;;;12.30;99.90;;;;;;5015158;28;20136;-70
2023/09/15 03:59:03;;;;;;;5.85;1.77;;;12.30;99.90;;;;;;5008712;28;20091;-70
2023/09/15 04:01:49;;;;;;;4.50;1.92;;;12.20;99.90;;;;;;4997813;28;20030;-70
2023/09/15 04:04:35;;;;;;;5.53;1.88;;;12.20;99.90;;;;;;4980343;28;20053;-70
2023/09/15 04:07:22;;;;;;;3.83;2.03;;;12.20;99.90;;;;;;4994432;28;20045;-70
2023/09/15 04:10:08;;;;;;;3.60;1.90;;;12.10;99.90;;;;;;5040424;28;20077;-70
2023/09/15 04:12:54;;;;;;;3.75;2.13;;;12.00;99.90;;;;;;5012889;28;20128;-69
2023/09/15 04:15:40;;;;;;;4.10;2.25;;;12.00;99.90;;;;;;5003807;28;20087;-69
2023/09/15 04:18:26;;;;;;;5.63;2.03;;;12.00;99.90;;;;;;5014308;28;20052;-69
2023/09/15 04:21:12;;;;;;;5.03;1.83;;;12.00;99.90;;;;;;5029974;28;20037;-70
2023/09/15 04:23:58;;;;;;;6.15;2.05;;;12.00;99.90;;;;;;5024327;28;20111;-70
2023/09/15 04:26:45;;;;;;;9.23;1.77;;;12.00;99.90;;;;;;5038013;28;20131;-70
2023/09/15 04:29:31;;;;;;;6.18;2.00;;;12.00;99.90;;;;;;5012269;28;20386;-69
2023/09/15 04:32:17;;;;;;;5.00;1.73;;;12.00;99.90;;;;;;5006983;28;20144;-70
2023/09/15 04:35:05;;;;;;;5.90;1.90;;;12.00;99.90;;;;;;5000115;28;20123;-70
2023/09/15 04:37:51;;;;;;;5.97;2.05;;;11.90;99.90;;;;;;5025743;28;20045;-69
2023/09/15 04:40:37;;;;;;;8.95;2.53;;;11.90;99.90;;;;;;5016783;28;20045;-69
2023/09/15 04:43:23;;;;;;;4.38;1.90;;;11.90;99.90;;;;;;5015500;28;20685;-70
2023/09/15 04:46:09;;;;;;;3.20;1.85;;;11.90;99.90;;;;;;5009822;28;20045;-70
2023/09/15 04:48:55;;;;;;;4.00;1.73;;;11.90;99.90;;;;;;5013463;28;20339;-70
2023/09/15 04:51:42;;;;;;;6.93;2.00;;;11.90;99.90;;;;;;5040135;28;20045;-69
2023/09/15 04:54:28;;;;;;;2.90;1.60;;;11.90;99.90;;;;;;5027219;28;20047;-70
2023/09/15 04:57:15;;;;;;;5.60;2.10;;;11.80;99.90;;;;;;5047236;28;20052;-70
2023/09/15 05:00:01;;;;;;;4.85;1.80;;;11.80;99.90;;;;;;4991034;28;20071;-70
2023/09/15 05:02:47;;;;;;;6.07;2.08;;;11.80;99.90;;;;;;4987670;28;20050;-70
2023/09/15 05:05:33;;;;;;;5.50;1.90;;;11.80;99.90;;;;;;4996957;28;20057;-70
2023/09/15 05:08:19;;;;;;;6.05;2.08;;;11.80;99.90;;;;;;4995977;28;20041;-70
2023/09/15 05:11:05;;;;;;;8.13;1.98;;;11.80;99.90;;;;;;5037502;28;20056;-70
2023/09/15 05:13:51;;;;;;;5.78;2.10;;;11.70;99.90;;;;;;4996873;28;20046;-70
2023/09/15 05:16:38;;;;;;;7.85;2.65;;;11.80;99.90;;;;;;5024100;28;20041;-70
2023/09/15 05:19:24;;;;;;;3.58;1.80;;;11.80;99.90;;;;;;5034258;28;20065;-69
2023/09/15 05:22:10;;;;;;;4.70;2.17;;;11.80;99.90;;;;;;4993901;28;20041;-70
2023/09/15 05:24:57;;;;;;;5.78;2.20;;;11.70;99.90;;;;;;5010602;28;20037;-70
2023/09/15 05:27:45;;;;;;;5.63;2.77;;;11.70;99.90;;;;;;5020000;28;20060;-70
2023/09/15 05:30:32;;;;;;;4.80;2.40;;;11.70;99.90;;;;;;4994702;28;20041;-70
2023/09/15 05:33:20;;;;;;;6.72;2.63;;;11.60;99.90;;;;;;5018326;28;20041;-70
2023/09/15 05:36:06;;;;;;;5.40;2.80;;;11.70;99.90;;;;;;5020874;28;20110;-70
2023/09/15 05:38:53;;;;;;;4.38;2.22;;;11.70;99.90;;;;;;5032202;28;20079;-70
2023/09/15 05:41:39;;;;;;;5.78;2.35;;;11.60;99.90;;;;;;5048003;28;20440;-70
2023/09/15 05:44:27;;;;;;;5.32;2.08;;;11.60;99.90;;;;;;5013578;28;20042;-70
2023/09/15 05:47:12;;;;;;;3.40;1.92;;;11.60;99.90;;;;;;5000912;28;20123;-70
2023/09/15 05:50:02;;;;;;;7.40;2.55;;;11.60;99.90;;;;;;4983968;28;20045;-70
2023/09/15 05:52:48;;;;;;;7.22;2.45;;;11.60;99.90;;;;;;5013013;28;20112;-70
2023/09/15 05:55:37;;;;;;;6.25;2.50;;;11.60;99.90;;;;;;5008457;28;20246;-70
2023/09/15 05:58:23;;;;;;;4.80;2.28;;;11.70;99.90;;;;;;5010208;28;20046;-70
2023/09/15 06:01:10;;;;;;;5.45;2.38;;;11.70;99.90;;;;;;5014820;28;20442;-70
2023/09/15 06:03:56;;;;;;;5.75;2.10;;;11.70;99.90;;;;;;4993448;28;20080;-70
2023/09/15 06:06:42;;;;;;;5.88;2.03;;;11.80;99.90;;;;;;4994542;28;20099;-69
2023/09/15 06:09:30;;;;;;;6.85;2.53;;;11.80;99.90;;;;;;5020644;28;20052;-70
2023/09/15 06:12:16;;;;;;;7.47;2.27;;;11.90;99.90;;;;;;4994962;28;20387;-70
2023/09/15 06:15:04;;;;;;;5.63;2.60;;;12.00;99.90;;;;;;5008716;28;20045;-70
2023/09/15 06:17:53;;;;;;;7.63;2.40;;;12.00;99.90;;;;;;4989463;28;20054;-70
2023/09/15 06:20:39;;;;;;;5.50;2.30;;;12.10;99.90;;;;;;4986368;28;20439;-70
2023/09/15 06:23:25;;;;;;;5.00;2.22;;;12.10;99.90;;;;;;4985782;28;20046;-72
2023/09/15 06:26:11;;;;;;;5.10;2.15;;;12.20;99.90;;;;;;4983284;28;20502;-72
2023/09/15 06:28:57;;;;;;;7.53;2.45;;;12.20;99.90;;;;;;4966379;28;20088;-71
2023/09/15 06:31:43;;;;;;;6.28;2.30;;;12.30;99.90;;;;;;4990765;28;20502;-72
2023/09/15 06:34:29;;;;;;;6.30;2.03;;;12.30;99.90;;;;;;4989826;28;20042;-72
2023/09/15 06:37:16;;;;;;;5.57;2.17;;;12.40;99.90;;;;;;4983938;28;20809;-72
2023/09/15 06:40:03;;;;;;;4.43;2.50;;;12.50;99.90;;;;;;4974167;28;20070;-72
2023/09/15 06:42:49;;;;;;;6.68;2.15;;;12.50;99.90;;;;;;5005724;28;20076;-72
2023/09/15 06:45:35;;;;;;;8.68;2.72;;;12.60;99.90;;;;;;4994187;28;20050;-72
2023/09/15 06:48:21;;;;;;;5.65;2.53;;;12.60;99.90;;;;;;4991773;28;20038;-71
2023/09/15 06:51:07;;;;;;;6.93;2.25;;;12.70;99.90;;;;;;4983579;28;20052;-72
2023/09/15 06:53:53;;;;;;;4.80;2.20;;;12.80;99.90;;;;;;4978637;28;20100;-71
2023/09/15 06:56:39;;;;;;;6.93;2.28;;;12.80;99.90;;;;;;4958279;28;20458;-72
2023/09/15 06:59:25;;;;;;;6.32;2.75;;;12.90;99.90;;;;;;4988939;28;20558;-71
2023/09/15 07:02:11;;;;;;;6.43;2.55;;;13.00;99.90;;;;;;4971109;28;20050;-72
2023/09/15 07:04:57;;;;;;;6.28;2.42;;;13.00;99.90;;;;;;4998764;28;20115;-71
2023/09/15 07:07:43;;;;;;;4.18;2.35;;;13.10;99.90;;;;;;4979717;28;20043;-71
2023/09/15 07:10:29;;;;;;;5.82;2.67;;;13.10;99.90;;;;;;4994652;28;20049;-72
2023/09/15 07:13:16;;;;;;;7.82;2.35;;;13.20;99.90;;;;;;5002221;28;20046;-71
2023/09/15 07:16:02;;;;;;;7.07;3.17;;;13.30;99.90;;;;;;4987795;28;20071;-72
2023/09/15 07:18:48;;;;;;;5.93;2.80;;;13.40;99.90;;;;;;5004157;28;20043;-71
2023/09/15 07:21:37;;;;;;;7.38;3.00;;;13.50;99.90;;;;;;4965608;28;20047;-72
2023/09/15 07:24:23;;;;;;;5.65;3.30;;;13.60;99.90;;;;;;4972894;28;20050;-71
2023/09/15 07:27:09;;;;;;;9.00;2.80;;;13.70;99.90;;;;;;4990201;28;20128;-72
2023/09/15 07:29:55;;;;;;;8.43;2.65;;;13.70;99.90;;;;;;5003945;28;20069;-72
2023/09/15 07:32:41;;;;;;;8.15;2.95;;;13.80;99.90;;;;;;5003515;28;20125;-72
2023/09/15 07:35:27;;;;;;;7.25;2.65;;;13.90;99.90;;;;;;4991269;28;20065;-72
2023/09/15 07:38:13;;;;;;;6.88;2.35;;;14.10;99.90;;;;;;5009672;28;20041;-73
2023/09/15 07:40:59;;;;;;;7.40;2.90;;;14.10;99.90;;;;;;4998236;28;20049;-72
2023/09/15 07:43:46;;;;;;;7.20;2.83;;;14.30;99.90;;;;;;4976057;28;20064;-73
2023/09/15 07:46:33;;;;;;;5.33;2.87;;;14.50;99.90;;;;;;4967484;28;20526;-72
2023/09/15 07:49:19;;;;;;;7.82;3.58;;;14.60;99.90;;;;;;4976452;28;20349;-73
2023/09/15 07:52:05;;;;;;;4.82;2.50;;;14.60;99.90;;;;;;4985810;28;20049;-73
2023/09/15 07:54:52;;;;;;;9.27;2.58;;;14.70;99.90;;;;;;4987894;28;20034;-72
2023/09/15 07:57:39;;;;;;;7.38;3.30;;;14.80;99.90;;;;;;4971941;28;20049;-72
2023/09/15 08:00:28;;;;;;;12.75;3.45;;;14.90;99.90;;;;;;4981480;28;20046;-72
2023/09/15 08:03:15;;;;;;;10.10;2.83;;;15.10;99.90;;;;;;4977058;28;20078;-73
2023/09/15 08:06:02;;;;;;;7.60;3.00;;;15.20;99.90;;;;;;4986159;28;20042;-73
2023/09/15 08:08:48;;;;;;;6.53;2.90;;;15.40;99.90;;;;;;5000275;28;20053;-73
2023/09/15 08:11:37;;;;;;;5.72;2.53;;;15.60;99.90;;;;;;4959424;28;20043;-73
2023/09/15 08:14:23;;;;;;;8.02;2.50;;;15.70;99.90;;;;;;4973322;28;20479;-72
2023/09/15 08:17:09;;;;;;;7.25;2.55;;;15.80;99.90;;;;;;5007870;28;20084;-72
2023/09/15 08:19:55;;;;;;;11.90;2.85;;;15.90;99.90;;;;;;4993575;28;20073;-73
2023/09/15 08:22:41;;;;;;;9.73;2.83;;;16.00;99.90;;;;;;5003406;28;20048;-72
2023/09/15 08:25:27;;;;;;;6.40;3.03;;;16.10;99.90;;;;;;5006938;28;20474;-72
2023/09/15 08:28:13;;;;;;;6.13;2.88;;;16.10;99.90;;;;;;5007578;28;20045;-72
2023/09/15 08:30:59;;;;;;;7.28;2.67;;;16.20;99.90;;;;;;5009176;28;20901;-73
2023/09/15 08:33:45;;;;;;;7.32;3.08;;;16.30;99.90;;;;;;5009939;28;20042;-73
2023/09/15 08:36:31;;;;;;;8.15;2.85;;;16.40;99.90;;;;;;4977414;28;20038;-73
2023/09/15 08:39:17;;;;;;;5.43;2.80;;;16.50;99.90;;;;;;4993072;28;20042;-72
2023/09/15 08:42:04;;;;;;;6.72;3.05;;;16.50;99.90;;;;;;4995799;28;20050;-73
2023/09/15 08:44:53;;;;;;;7.47;3.22;;;16.60;99.90;;;;;;4980184;28;20359;-72
2023/09/15 08:47:43;;;;;;;5.60;3.00;;;16.70;99.90;;;;;;5000815;28;20072;-72
2023/09/15 08:50:30;;;;;;;8.43;2.85;;;16.70;99.90;;;;;;4997159;28;20049;-72
2023/09/15 08:53:16;;;;;;;7.68;3.00;;;16.90;99.90;;;;;;5019233;28;20037;-72
2023/09/15 08:56:02;;;;;;;4.95;2.42;;;17.00;99.90;;;;;;5005348;28;20038;-73
2023/09/15 08:58:48;;;;;;;5.65;2.45;;;17.00;99.90;;;;;;5000222;28;20041;-72
2023/09/15 09:01:33;;;;;;;7.05;2.90;;;17.00;99.90;;;;;;5014289;28;20433;-72
2023/09/15 09:04:19;;;;;;;6.70;2.95;;;17.20;99.90;;;;;;5013378;28;20046;-72
2023/09/15 09:07:06;;;;;;;5.97;2.60;;;17.20;99.90;;;;;;4997123;28;20042;-72
2023/09/15 09:09:51;;;;;;;6.13;2.97;;;17.30;99.90;;;;;;4994927;28;20049;-72
2023/09/15 09:12:37;;;;;;;4.57;2.60;;;17.30;99.90;;;;;;5013666;28;20102;-72
2023/09/15 09:15:23;;;;;;;7.30;3.22;;;17.40;99.90;;;;;;5013675;28;20529;-72
2023/09/15 09:18:16;;;;;;;5.57;2.85;;;17.50;99.90;;;;;;4995576;28;20165;-72
2023/09/15 09:21:03;;;;;;;4.90;2.90;;;17.50;99.90;;;;;;4993832;28;20048;-72
2023/09/15 09:23:49;;;;;;;7.18;3.03;;;17.50;99.90;;;;;;5010067;28;20049;-72
2023/09/15 09:26:35;;;;;;;5.90;3.00;;;17.50;99.90;;;;;;5002939;28;20120;-73
2023/09/15 09:29:26;;;;;;;8.25;2.97;;;17.60;99.90;;;;;;4984221;28;20141;-73
2023/09/15 09:32:13;;;;;;;10.82;2.55;;;17.80;99.90;;;;;;4973072;28;20038;-72
2023/09/15 09:35:01;;;;;;;3.80;2.38;;;17.90;99.90;;;;;;4997302;28;20035;-72
2023/09/15 09:37:47;;;;;;;6.10;2.53;;;18.10;99.90;;;;;;4984247;28;20042;-72
2023/09/15 09:40:33;;;;;;;5.85;2.83;;;18.10;99.90;;;;;;4976897;28;20077;-73
2023/09/15 09:43:19;;;;;;;5.07;2.63;;;18.20;99.90;;;;;;4996448;28;20085;-73
2023/09/15 09:46:09;;;;;;;5.05;2.83;;;18.30;99.90;;;;;;4985115;28;20176;-72
2023/09/15 09:48:55;;;;;;;6.80;3.17;;;18.40;99.90;;;;;;4985974;28;20062;-73
2023/09/15 09:51:41;;;;;;;7.22;2.67;;;18.50;99.90;;;;;;4967837;28;20048;-73
2023/09/15 09:54:27;;;;;;;5.72;2.40;;;18.60;99.90;;;;;;4984802;28;20038;-72
2023/09/15 09:57:15;;;;;;;4.75;2.30;;;18.70;99.90;;;;;;4990803;28;20042;-72
2023/09/15 10:00:03;;;;;;;4.18;2.60;;;18.90;99.90;;;;;;4948059;28;20046;-72
2023/09/15 10:02:49;;;;;;;3.95;2.22;;;19.00;98.90;;;;;;4980300;28;20066;-72
2023/09/15 10:05:36;;;;;;;7.03;2.40;;;19.10;99.10;;;;;;4991919;28;20042;-73
2023/09/15 10:08:22;;;;;;;6.20;2.67;;;19.20;98.20;;;;;;4964043;28;20077;-73
2023/09/15 10:11:08;;;;;;;5.70;2.28;;;19.40;98.20;;;;;;4977779;28;20046;-73
2023/09/15 10:13:54;;;;;;;5.78;2.90;;;19.50;97.70;;;;;;4975039;28;20096;-72
2023/09/15 10:16:40;;;;;;;6.05;2.72;;;19.60;98.50;;;;;;4997243;28;20057;-72
2023/09/15 10:19:29;;;;;;;4.70;2.30;;;19.70;97.50;;;;;;5016682;28;20033;-73
2023/09/15 10:22:15;;;;;;;4.70;2.42;;;19.90;98.80;;;;;;5007434;28;20132;-73
2023/09/15 10:25:03;;;;;;;5.88;2.20;;;;;;;;;;5022388;28;20051;-73
2023/09/15 10:27:49;;;;;;;5.90;2.65;;;;;;;;;;5029357;28;20037;-73
2023/09/15 10:30:36;;;;;;;4.63;2.80;;;;;;;;;;5036747;28;20049;-73
2023/09/15 10:33:24;;;;;;;4.25;2.35;;;;;;;;;;5037288;28;20048;-73
2023/09/15 10:36:11;;;;;;;;;;;;;;;;;;5045298;28;20138;-73
2023/09/15 10:38:58;;;;;;;5.45;2.47;;;;;;;;;;5034341;28;19951;-73
2023/09/15 10:41:44;;;;;;;5.93;2.40;;;;;;;;;;5024650;28;20048;-73
2023/09/15 10:44:32;;;;;;;5.97;2.10;;;;;;;;;;5010166;28;20045;-73
2023/09/15 10:47:19;;;;;;;4.15;2.38;;;;;;;;;;5042647;28;20037;-73
2023/09/15 10:50:07;;;;;;;4.40;2.53;;;;;;;;;;5028403;28;20049;-73
2023/09/15 10:52:53;;;;;;;;;;;;;;;;;;5000403;28;20040;-73
2023/09/15 10:55:40;;;;;;;7.13;2.53;;;21.50;94.70;;;;;;5019707;28;20334;-73
2023/09/15 10:58:26;;;;;;;6.72;2.70;;;21.50;95.30;;;;;;5033502;28;20410;-73
2023/09/15 11:01:13;;;;;;;4.90;2.72;;;21.70;95.80;;;;;;5015401;28;20045;-73
2023/09/15 11:04:02;;;;;;;3.67;2.30;;;21.60;95.40;;;;;;5002207;28;20079;-72
2023/09/15 11:06:49;;;;;;;4.55;2.88;;;22.00;96.90;;;;;;5023877;28;20133;-73
2023/09/15 11:09:35;;;;;;;4.95;2.30;;;22.20;95.30;;;;;;5019531;28;20046;-73
2023/09/15 11:12:21;;;;;;;4.25;2.42;;;22.40;96.10;;;;;;5021059;28;20461;-73
2023/09/15 11:15:10;;;;;;;5.20;2.50;;;22.50;95.20;;;;;;5026341;28;20038;-73
2023/09/15 11:17:56;;;;;;;4.30;2.30;;;22.60;95.00;;;;;;4992855;28;20092;-73
2023/09/15 11:20:43;;;;;;;4.15;2.30;;;22.50;94.00;;;;;;5011338;28;20049;-73
2023/09/15 11:23:29;;;;;;;5.18;2.38;;;;;;;;;;5049532;28;20037;-73
2023/09/15 11:26:16;;;;;;;4.85;2.67;;;22.60;94.40;;;;;;5026851;28;20053;-73
2023/09/15 11:29:06;;;;;;;4.78;2.65;;;22.70;94.50;;;;;;5025109;28;20033;-73
2023/09/15 11:31:53;;;;;;;4.55;2.75;;;22.90;95.20;;;;;;5032520;28;20076;-72
2023/09/15 11:34:39;;;;;;;4.57;2.88;;;22.90;94.70;;;;;;5019201;28;20045;-73
2023/09/15 11:37:25;;;;;;;6.55;2.63;;;22.80;94.50;;;;;;5028000;28;20037;-72
2023/09/15 11:40:21;;;;;;;4.75;2.83;;;22.90;94.60;;;;;;5003513;28;20123;-73
2023/09/15 11:43:07;;;;;;;10.13;2.95;;;23.00;94.30;;;;;;5014451;28;20037;-73
2023/09/15 11:45:53;;;;;;;7.68;2.55;;;22.70;93.50;;;;;;4983831;28;20060;-73
2023/09/15 11:48:40;;;;;;;3.90;2.90;;;22.80;94.30;;;;;;5008244;28;20110;-72
2023/09/15 11:51:26;;;;;;;4.80;2.85;;;22.90;93.90;;;;;;5005770;28;20076;-73
2023/09/15 11:54:12;;;;;;;5.50;2.40;;;;;;;;;;5029826;28;20037;-73
2023/09/15 11:56:59;;;;;;;4.97;2.40;;;;;;;;;;5035282;28;20084;-73
2023/09/15 11:59:45;;;;;;;6.53;2.88;;;;;;;;;;5035073;28;20056;-73
2023/09/15 12:02:32;;;;;;;6.35;2.53;;;;;;;;;;5032490;28;20049;-72
2023/09/15 12:05:21;;;;;;;4.43;2.85;;;;;;;;;;5004190;28;20038;-73
2023/09/15 12:08:08;;;;;;;5.07;2.53;;;;;;;;;;5033818;28;20473;-73
2023/09/15 12:10:55;;;;;;;4.07;2.35;;;;;;;;;;5045420;28;20053;-73
2023/09/15 12:13:42;;;;;;;4.40;2.40;;;;;;;;;;5022847;28;20119;-73
2023/09/15 12:16:30;;;;;;;3.17;2.20;;;;;;;;;;5036550;28;20152;-73
2023/09/15 12:19:17;;;;;;;5.72;2.22;;;;;;;;;;5015086;28;20127;-73
2023/09/15 12:22:04;;;;;;;4.90;2.15;;;;;;;;;;5016268;28;20041;-73
2023/09/15 12:24:51;;;;;;;;;;;;;;;;;;5017966;28;20038;-73
2023/09/15 12:27:39;;;;;;;6.70;2.60;;;;;;;;;;5046618;28;19913;-72
2023/09/15 12:30:25;;;;;;;7.15;2.60;;;;;;;;;;5014144;28;20129;-72
2023/09/15 12:33:12;;;;;;;3.97;2.20;;;;;;;;;;5010898;28;20072;-72
2023/09/15 12:36:01;;;;;;;5.63;2.65;;;;;;;;;;5027700;28;20045;-72
2023/09/15 12:38:48;;;;;;;5.90;2.95;;;;;;;;;;5052587;28;20047;-72
2023/09/15 12:41:35;;;;;;;6.72;2.45;;;;;;;;;;5031227;28;20036;-72
2023/09/15 12:44:22;;;;;;;5.72;2.40;;;;;;;;;;5046034;28;20051;-72
2023/09/15 12:47:09;;;;;;;5.72;2.55;;;;;;;;;;5026679;28;20098;-72
2023/09/15 12:49:55;;;;;;;3.47;2.50;;;;;;;;;;5038543;28;20053;-72
2023/09/15 12:52:41;;;;;;;3.47;2.30;;;;;;;;;;5012886;28;20029;-73
2023/09/15 12:55:28;;;;;;;3.50;2.47;;;;;;;;;;5014156;28;20397;-72
2023/09/15 12:58:15;;;;;;;4.25;2.67;;;;;;;;;;5034438;28;20037;-72
2023/09/15 13:01:02;;;;;;;4.40;2.33;;;;;;;;;;5032890;28;20043;-72
2023/09/15 13:03:49;;;;;;;3.22;2.30;;;;;;;;;;5018560;28;20041;-73
2023/09/15 13:06:35;;;;;;;3.58;2.20;;;;;;;;;;5031359;28;20045;-73
2023/09/15 13:09:27;;;;;;;4.75;2.20;;;;;;;;;;5019748;28;20037;-73
2023/09/15 13:12:13;;;;;;;6.88;2.80;;;;;;;;;;5048603;28;20090;-73
2023/09/15 13:15:00;;;;;;;5.43;2.60;;;;;;;;;;5039152;28;20037;-73
2023/09/15 13:17:46;;;;;;;5.97;2.63;;;;;;;;;;5011372;28;20061;-73
2023/09/15 13:20:33;;;;;;;6.75;2.58;;;;;;;;;;5010896;28;20045;-73
2023/09/15 13:23:19;;;;;;;4.22;2.10;;;;;;;;;;5032880;28;20424;-73
2023/09/15 13:26:05;;;;;;;3.85;2.67;;;;;;;;;;5026333;28;20045;-73
2023/09/15 13:28:52;;;;;;;5.55;2.45;;;;;;;;;;5040626;28;20045;-73
2023/09/15 13:31:38;;;;;;;4.30;2.70;;;;;;;;;;5029355;28;20811;-72
2023/09/15 13:34:26;;;;;;;3.13;2.25;;;;;;;;;;5028431;28;20366;-72
2023/09/15 13:37:13;;;;;;;3.90;2.70;;;;;;;;;;5032735;28;20153;-72
2023/09/15 13:39:59;;;;;;;4.38;1.98;;;;;;;;;;5018823;28;20120;-72
2023/09/15 13:42:46;;;;;;;3.83;2.55;;;;;;;;;;5015795;28;20138;-72
2023/09/15 13:45:34;;;;;;;7.00;2.50;;;;;;;;;;5026994;28;20072;-72
2023/09/15 13:48:20;;;;;;;5.35;2.30;;;;;;;;;;5037996;28;20036;-72
2023/09/15 13:51:08;;;;;;;4.03;1.93;;;;;;;;;;5036388;28;20740;-72
2023/09/15 13:53:54;;;;;;;5.78;2.03;;;;;;;;;;5027938;28;20042;-72
2023/09/15 13:56:41;;;;;;;5.00;2.60;;;;;;;;;;5016882;28;20064;-72
2023/09/15 13:59:27;;;;;;;4.05;2.25;;;;;;;;;;5007304;28;20041;-72
2023/09/15 14:02:14;;;;;;;4.05;2.20;;;;;;;;;;5013715;28;20638;-72
2023/09/15 14:05:01;;;;;;;5.35;2.67;;;;;;;;;;5031660;28;20051;-72
2023/09/15 14:07:50;;;;;;;;;;;;;;;;;;5025363;28;20088;-72
2023/09/15 14:10:37;;;;;;;5.57;2.70;;;;;;;;;;5049921;28;19916;-72
2023/09/15 14:13:23;;;;;;;5.30;2.25;;;;;;;;;;5021433;28;20033;-72
2023/09/15 14:16:10;;;;;;;5.65;2.30;;;;;;;;;;5030801;28;20401;-72
2023/09/15 14:18:56;;;;;;;5.00;2.50;;;;;;;;;;5011854;28;20063;-72
2023/09/15 14:21:44;;;;;;;5.60;2.10;;;;;;;;;;5017582;28;20049;-72
2023/09/15 14:24:34;;;;;;;4.25;2.05;;;;;;;;;;5011469;28;20069;-72
2023/09/15 14:27:21;;;;;;;5.68;2.58;;;;;;;;;;5004128;28;20049;-72
2023/09/15 14:30:07;;;;;;;6.25;2.70;;;;;;;;;;5016655;28;20666;-72
2023/09/15 14:32:56;;;;;;;5.93;2.65;;;;;;;;;;5033606;28;20116;-72
2023/09/15 14:35:42;;;;;;;6.80;2.58;;;;;;;;;;5032463;28;20120;-72
2023/09/15 14:38:29;;;;;;;6.22;3.10;;;;;;;;;;5032209;28;20048;-72
2023/09/15 14:41:15;;;;;;;5.22;2.63;;;;;;;;;;5031967;28;20047;-72
2023/09/15 14:44:02;;;;;;;5.13;2.95;;;;;;;;;;5016616;28;20041;-72
2023/09/15 14:46:48;;;;;;;4.00;2.50;;;;;;;;;;5020028;28;20448;-72
2023/09/15 14:49:34;;;;;;;5.45;2.72;;;;;;;;;;5049398;28;20064;-72
2023/09/15 14:52:21;;;;;;;7.22;3.08;;;;;;;;;;5034662;28;20037;-72
2023/09/15 14:55:07;;;;;;;6.82;2.70;;;;;;;;;;5038948;28;20060;-72
2023/09/15 14:57:53;;;;;;;5.53;2.92;;;;;;;;;;5049480;28;20036;-72